Weather at Sonora Municipal Airport

Public forecast

Using degrees Fahrenheit for public forecast. Weather courtesy of forecast.io.

Current aviation weather report (METAR) for Sonora Municipal Airport

2024/03/03 09:35 (retrieved 24 minutes ago)

KSOA 030935Z AUTO 17006KT 10SM CLR 16/13 A2994 RMK AO2

Aviation forecast (TAF) for Sonora Municipal Airport

2024/03/03 06:22 (retrieved 4 hours ago)

TAF KSOA 030520Z 0306/0406 19004KT P6SM SCT250 FM031200 19004KT P6SM SCT015 TEMPO 0313/0315 BKN015 FM031700 20008KT P6SM SCT250 FM040000 VRB03KT P6SM BKN250